Time;durP1;ratioP1;P1;durP2;ratioP2;P2;SDS_P1;SDS_P2;PMS_P1;PMS_P2;Temp;Humidity;BMP_temperature;BMP_pressure;BME280_temperature;BME280_humidity;BME280_pressure;Samples;Min_cycle;Max_cycle;Signal;HPM_P1;HPM_P2
2022/03/28 00:02:11;;;;;;;10.73;6.40;;;13.50;47.40;;;-142.21;58.90;112049.66;4954557;28;20510;-76
2022/03/28 00:04:38;;;;;;;10.43;6.60;;;13.40;47.60;;;-142.21;59.42;112049.66;4954825;28;20504;-77
2022/03/28 00:07:07;;;;;;;11.57;6.57;;;13.40;47.20;;;-142.21;60.02;112049.66;4954464;29;20969;-77
2022/03/28 00:09:34;;;;;;;9.20;6.63;;;13.40;47.60;;;-142.21;60.24;112049.66;4953675;28;21024;-78
2022/03/28 00:12:01;;;;;;;11.37;6.77;;;13.40;47.50;;;-142.21;58.93;112049.66;4954813;29;20476;-76
2022/03/28 00:14:29;;;;;;;10.40;6.67;;;13.30;47.60;;;-142.21;59.49;112049.66;4954319;29;20536;-77
2022/03/28 00:16:57;;;;;;;10.80;7.00;;;13.30;48.40;;;-142.21;60.97;112049.66;4954536;29;21012;-75
2022/03/28 00:19:24;;;;;;;8.90;6.27;;;13.30;47.80;;;-142.21;62.38;112049.66;4953963;28;20461;-77
2022/03/28 00:21:51;;;;;;;9.53;6.30;;;13.20;48.40;;;-142.21;63.50;112049.66;4953913;29;21019;-76
2022/03/28 00:24:20;;;;;;;8.70;6.40;;;13.20;48.80;;;-142.21;63.80;112049.66;4954511;28;20571;-76
2022/03/28 00:26:47;;;;;;;8.50;6.50;;;13.20;49.30;;;-142.21;65.92;112049.66;4935247;29;20489;-76
2022/03/28 00:29:15;;;;;;;8.00;5.90;;;13.20;49.00;;;-142.21;65.49;112049.66;4949882;28;20829;-77
2022/03/28 00:31:42;;;;;;;11.37;6.73;;;13.10;49.00;;;-142.21;66.15;112049.66;4953929;28;20448;-77
2022/03/28 00:34:09;;;;;;;9.50;6.27;;;13.10;49.10;;;-142.21;66.95;112049.66;4954468;28;20452;-76
2022/03/28 00:36:36;;;;;;;13.00;6.97;;;13.00;48.80;;;-142.21;66.99;112049.66;4953807;29;20455;-76
2022/03/28 00:39:03;;;;;;;9.00;6.03;;;13.00;50.30;;;-142.21;66.60;112049.66;4954191;29;20457;-77
2022/03/28 00:41:32;;;;;;;7.40;5.70;;;13.00;49.90;;;-142.21;68.02;112049.66;4954650;28;20497;-77
2022/03/28 00:44:01;;;;;;;8.90;6.03;;;12.90;50.60;;;-142.21;67.85;112049.66;4920437;29;20473;-77
2022/03/28 00:46:28;;;;;;;7.77;5.67;;;12.80;50.30;;;-142.21;67.17;112049.66;4942087;29;20484;-75
2022/03/28 00:48:56;;;;;;;8.00;6.27;;;12.70;50.40;;;-142.21;67.82;112049.66;4953998;28;20456;-78
2022/03/28 00:51:24;;;;;;;8.63;6.60;;;12.60;50.20;;;-142.21;67.85;112049.66;4950990;28;20883;-77
2022/03/28 00:53:52;;;;;;;7.83;5.63;;;12.60;50.10;;;-142.21;67.62;112049.66;4948599;29;20880;-76
2022/03/28 00:56:20;;;;;;;11.50;6.53;;;12.50;50.10;;;-142.21;68.08;112049.66;4955250;29;20479;-77
2022/03/28 00:58:48;;;;;;;7.77;5.87;;;12.40;50.10;;;-142.21;67.91;112049.66;4954551;28;20468;-74
2022/03/28 01:01:16;;;;;;;11.83;6.10;;;12.40;49.90;;;-142.21;67.65;112049.66;4954475;28;20607;-75
2022/03/28 01:03:43;;;;;;;13.00;6.63;;;12.40;49.90;;;-142.21;67.67;112049.66;4954020;29;20481;-76
2022/03/28 01:06:11;;;;;;;9.03;6.40;;;12.40;49.70;;;-142.21;67.98;112049.66;4954154;29;20449;-77
2022/03/28 01:08:38;;;;;;;10.60;6.33;;;12.50;49.60;;;-142.21;67.53;112049.66;4954624;28;20456;-77
2022/03/28 01:11:09;;;;;;;10.53;6.57;;;12.50;50.00;;;-142.21;69.24;112049.66;4953225;28;21003;-76
2022/03/28 01:13:40;;;;;;;8.20;5.80;;;12.50;50.10;;;-142.21;70.12;112049.66;4954345;29;20496;-76
2022/03/28 01:16:09;;;;;;;10.73;6.10;;;12.30;51.50;;;-142.21;70.38;112049.66;4953654;29;20531;-77
2022/03/28 01:18:36;;;;;;;8.87;5.47;;;12.20;51.50;;;-142.21;70.73;112049.66;4953951;28;20957;-76
2022/03/28 01:21:06;;;;;;;8.37;5.43;;;12.20;51.50;;;-142.21;72.13;112049.66;4953304;29;20480;-76
2022/03/28 01:23:33;;;;;;;8.13;6.30;;;12.10;51.10;;;-142.21;71.85;112049.66;4953401;28;20492;-75
2022/03/28 01:26:00;;;;;;;7.33;5.33;;;12.10;50.60;;;-142.21;70.26;112049.66;4952510;28;20465;-75
2022/03/28 01:28:28;;;;;;;7.40;6.33;;;12.20;50.60;;;-142.21;70.28;112049.66;4952526;28;20512;-76
2022/03/28 01:30:56;;;;;;;9.30;6.10;;;12.10;50.60;;;-142.21;71.48;112049.66;4952830;29;20455;-76
2022/03/28 01:33:23;;;;;;;8.77;5.97;;;12.10;51.20;;;-142.21;73.08;112049.66;4952532;29;20559;-77
2022/03/28 01:35:52;;;;;;;9.57;6.47;;;12.00;52.20;;;-142.21;72.44;112049.66;4952406;29;20455;-77
2022/03/28 01:38:22;;;;;;;8.80;6.13;;;11.90;51.90;;;-142.21;71.79;112049.66;4954599;28;20448;-75
2022/03/28 01:40:52;;;;;;;9.83;6.53;;;11.90;51.00;;;-142.21;74.19;112049.66;4956387;28;20453;-76
2022/03/28 01:43:21;;;;;;;12.17;6.37;;;11.80;52.00;;;-142.21;74.98;112049.66;4956044;29;20472;-75
2022/03/28 01:45:50;;;;;;;9.27;6.27;;;11.80;52.20;;;-142.21;76.97;112049.66;4955966;28;20539;-76
2022/03/28 01:48:17;;;;;;;9.47;6.33;;;11.80;51.50;;;-142.21;76.04;112049.66;4955814;28;20456;-75
2022/03/28 01:50:44;;;;;;;8.57;6.13;;;11.80;51.70;;;-142.21;75.88;112049.66;4955903;29;20491;-77
2022/03/28 01:53:12;;;;;;;7.77;6.13;;;11.70;52.80;;;-142.21;76.26;112049.66;4938852;29;20444;-75
2022/03/28 01:55:42;;;;;;;7.50;6.27;;;11.70;51.80;;;-142.21;74.80;112049.66;4954802;28;20491;-76
2022/03/28 01:58:09;;;;;;;10.57;6.37;;;11.60;52.50;;;-142.21;75.53;112049.66;4956384;29;20523;-76
2022/03/28 02:00:37;;;;;;;7.87;6.20;;;11.60;52.20;;;-142.21;74.56;112049.66;4954879;28;20945;-76
2022/03/28 02:03:04;;;;;;;10.00;6.90;;;11.60;51.80;;;-142.21;74.04;112049.66;4955250;29;20587;-76
2022/03/28 02:05:31;;;;;;;7.13;6.20;;;11.60;51.60;;;-142.21;75.24;112049.66;4955327;29;20488;-77
2022/03/28 02:07:59;;;;;;;7.67;5.73;;;11.60;51.70;;;-142.21;76.63;112049.66;4940362;28;20785;-75
2022/03/28 02:10:27;;;;;;;10.00;5.97;;;11.60;52.40;;;-142.21;75.86;112049.66;4950210;29;20867;-76
2022/03/28 02:12:56;;;;;;;8.47;6.30;;;11.40;52.30;;;-142.21;75.60;112049.66;4955357;28;20941;-78
2022/03/28 02:15:23;;;;;;;9.00;6.23;;;11.40;52.00;;;-142.21;77.14;112049.66;4955680;28;20453;-77
2022/03/28 02:17:50;;;;;;;10.43;6.60;;;11.40;52.10;;;-142.21;76.88;112049.66;4954956;29;20548;-76
2022/03/28 02:20:19;;;;;;;10.17;6.47;;;11.40;52.30;;;-142.21;75.93;112049.66;4954593;28;20463;-76
2022/03/28 02:22:47;;;;;;;8.70;6.30;;;11.30;52.30;;;-142.21;75.32;112049.66;4916657;28;1116426;-77
2022/03/28 02:25:16;;;;;;;10.20;6.77;;;11.30;52.20;;;-142.21;75.89;112049.66;4955897;28;20512;-76
2022/03/28 02:27:44;;;;;;;8.47;6.53;;;11.30;52.20;;;-142.21;76.67;112049.66;4957241;29;20798;-75
2022/03/28 02:30:16;;;;;;;8.13;5.67;;;11.30;52.70;;;-142.21;75.63;112049.66;4929110;29;20463;-76
2022/03/28 02:32:43;;;;;;;10.50;6.70;;;11.20;52.80;;;-142.21;76.60;112049.66;4955807;29;20444;-75
2022/03/28 02:35:11;;;;;;;12.13;6.37;;;11.10;52.80;;;-142.21;78.17;112049.66;4956527;28;20453;-76
2022/03/28 02:37:39;;;;;;;9.53;6.17;;;10.90;53.90;;;-142.21;76.55;112049.66;4956363;28;20449;-77
2022/03/28 02:40:09;;;;;;;8.93;5.97;;;10.90;53.00;;;-142.21;75.05;112049.66;4956065;29;20455;-76
2022/03/28 02:42:36;;;;;;;9.47;7.13;;;11.00;52.40;;;-142.21;74.75;112049.66;4956330;28;20484;-75
2022/03/28 02:45:05;;;;;;;8.50;5.77;;;11.00;51.90;;;-142.21;75.69;112049.66;4955807;28;20949;-75
2022/03/28 02:47:33;;;;;;;6.93;6.10;;;11.00;52.10;;;-142.21;80.29;112049.66;4956088;28;20464;-77
2022/03/28 02:50:01;;;;;;;9.63;6.73;;;10.90;53.30;;;-142.21;76.77;112049.66;4956566;28;20455;-75
2022/03/28 02:52:28;;;;;;;8.87;6.40;;;10.90;52.60;;;-142.21;77.51;112049.66;4969704;28;20532;-77
2022/03/28 02:54:55;;;;;;;11.60;6.50;;;10.90;52.40;;;-142.21;78.33;112049.66;4956368;28;20458;-77
2022/03/28 02:57:22;;;;;;;8.20;6.10;;;11.00;52.30;;;-142.21;78.00;112049.66;4956213;28;20992;-76
2022/03/28 02:59:50;;;;;;;8.00;5.97;;;10.90;52.90;;;-142.21;77.46;112049.66;4956289;28;20566;-76
2022/03/28 03:02:17;;;;;;;10.00;6.53;;;10.80;53.10;;;-142.21;75.86;112049.66;4955148;28;20857;-77
2022/03/28 03:04:46;;;;;;;7.13;5.73;;;10.80;52.80;;;-142.21;75.81;112049.66;4956069;28;20989;-75
2022/03/28 03:07:13;;;;;;;9.67;6.27;;;10.80;52.70;;;-142.21;75.69;112049.66;4955416;28;20459;-76
2022/03/28 03:09:40;;;;;;;10.93;6.60;;;10.80;52.50;;;-142.21;78.41;112049.66;4955709;28;20480;-75
2022/03/28 03:12:09;;;;;;;9.20;6.33;;;10.70;53.00;;;-142.21;77.63;112049.66;4956092;28;20858;-77
2022/03/28 03:14:37;;;;;;;9.93;6.77;;;10.60;54.00;;;-142.21;76.87;112049.66;4955673;29;20455;-77
2022/03/28 03:17:05;;;;;;;8.40;5.93;;;10.50;53.20;;;-142.21;76.57;112049.66;4955423;29;20459;-75
2022/03/28 03:19:32;;;;;;;9.17;6.13;;;10.60;53.10;;;-142.21;77.71;112049.66;4954380;28;20969;-77
2022/03/28 03:22:01;;;;;;;9.27;6.73;;;10.50;53.40;;;-142.21;77.81;112049.66;4955417;28;21001;-77
2022/03/28 03:24:28;;;;;;;8.17;6.27;;;10.50;53.20;;;-142.21;77.21;112049.66;4954807;28;20489;-77
2022/03/28 03:26:55;;;;;;;9.40;6.60;;;10.50;53.30;;;-142.21;77.03;112049.66;4955163;29;20543;-76
2022/03/28 03:29:23;;;;;;;7.80;5.97;;;10.50;53.00;;;-142.21;76.39;112049.66;4954695;28;20560;-76
2022/03/28 03:31:50;;;;;;;10.43;6.63;;;10.40;52.90;;;-142.21;76.47;112049.66;4955069;28;20453;-75
2022/03/28 03:34:18;;;;;;;8.57;6.33;;;10.40;53.00;;;-142.21;75.92;112049.66;4955198;29;20452;-75
2022/03/28 03:36:46;;;;;;;11.17;6.03;;;10.40;52.70;;;-142.21;76.05;112049.66;4954566;28;20532;-75
2022/03/28 03:39:14;;;;;;;8.90;6.33;;;10.40;53.00;;;-142.21;77.00;112049.66;4955733;28;20865;-77
2022/03/28 03:41:42;;;;;;;8.70;6.23;;;10.40;53.70;;;-142.21;77.46;112049.66;4949057;28;20500;-77
2022/03/28 03:44:10;;;;;;;10.47;6.57;;;10.30;53.20;;;-142.21;78.76;112049.66;4950663;29;20531;-75
2022/03/28 03:46:37;;;;;;;8.87;5.97;;;10.30;53.00;;;-142.21;79.84;112049.66;4936870;29;20496;-76
2022/03/28 03:49:05;;;;;;;9.37;6.63;;;10.30;53.60;;;-142.21;80.98;112049.66;4953295;28;20472;-77
2022/03/28 03:51:33;;;;;;;9.53;6.57;;;10.30;54.20;;;-142.21;78.79;112049.66;4954819;28;20459;-78
2022/03/28 03:54:00;;;;;;;10.43;6.80;;;10.20;53.60;;;-142.21;79.62;112049.66;4954894;28;20509;-77
2022/03/28 03:56:29;;;;;;;8.93;6.00;;;10.20;53.90;;;-142.21;77.71;112049.66;4938051;29;20456;-75
2022/03/28 03:58:59;;;;;;;9.07;6.07;;;10.10;53.80;;;-142.21;78.90;112049.66;4954022;28;20493;-77
2022/03/28 04:01:27;;;;;;;8.43;6.67;;;10.00;53.90;;;-142.21;77.52;112049.66;4954930;28;20547;-77
2022/03/28 04:03:55;;;;;;;10.00;6.47;;;10.00;54.10;;;-142.21;77.84;112049.66;4954655;28;20492;-77
2022/03/28 04:06:22;;;;;;;17.77;6.30;;;9.90;54.80;;;-142.21;100.00;112049.66;4955221;29;20473;-76
2022/03/28 04:08:50;;;;;;;9.47;6.77;;;9.80;66.30;;;-142.21;100.00;112049.66;4953975;28;20459;-75
2022/03/28 04:11:17;;;;;;;8.77;6.70;;;9.60;75.00;;;-142.21;100.00;112049.66;4954938;28;20453;-74
2022/03/28 04:13:46;;;;;;;10.77;7.43;;;9.60;79.70;;;-142.21;100.00;112049.66;4954739;28;20445;-74
2022/03/28 04:16:13;;;;;;;10.73;7.70;;;9.40;81.30;;;-142.21;100.00;112049.66;4954477;28;20478;-74
2022/03/28 04:18:40;;;;;;;14.67;7.30;;;9.40;82.40;;;-142.21;100.00;112049.66;4955026;28;20507;-75
2022/03/28 04:21:07;;;;;;;10.30;7.43;;;9.30;83.00;;;-142.21;100.00;112049.66;4952296;28;20496;-76
2022/03/28 04:23:35;;;;;;;10.13;6.73;;;9.20;85.40;;;-142.21;100.00;112049.66;4951624;28;20586;-76
2022/03/28 04:26:02;;;;;;;11.70;7.57;;;9.10;83.60;;;-142.21;100.00;112049.66;4953772;28;20810;-76
2022/03/28 04:28:29;;;;;;;10.93;7.07;;;9.00;83.60;;;-142.21;100.00;112049.66;4953012;28;20555;-75
2022/03/28 04:30:57;;;;;;;13.17;7.57;;;8.90;83.90;;;-142.21;100.00;112049.66;4954203;28;20520;-75
2022/03/28 04:33:25;;;;;;;10.70;7.17;;;8.90;84.30;;;-142.21;100.00;112049.66;4954066;28;20875;-75
2022/03/28 04:35:53;;;;;;;13.57;7.23;;;8.70;82.00;;;-142.21;100.00;112049.66;4954005;28;20452;-75
2022/03/28 04:38:20;;;;;;;9.73;7.27;;;8.60;81.30;;;-142.21;100.00;112049.66;4953273;28;20487;-74
2022/03/28 04:40:47;;;;;;;11.93;7.80;;;8.60;81.50;;;-142.21;100.00;112049.66;4935702;29;20512;-75
2022/03/28 04:43:15;;;;;;;10.27;7.33;;;8.60;81.90;;;-142.21;100.00;112049.66;4956184;28;20543;-75
2022/03/28 04:45:42;;;;;;;13.10;7.80;;;8.60;81.80;;;-142.21;100.00;112049.66;4954414;28;20468;-75
2022/03/28 04:48:11;;;;;;;10.33;7.60;;;8.60;79.30;;;-142.21;100.00;112049.66;4953698;28;20480;-76
2022/03/28 04:50:39;;;;;;;10.57;7.43;;;8.60;80.50;;;-142.21;100.00;112049.66;4953021;28;20449;-76
2022/03/28 04:53:06;;;;;;;12.20;7.73;;;8.70;81.00;;;-142.21;100.00;112049.66;4954134;28;20444;-75
2022/03/28 04:55:34;;;;;;;10.30;7.37;;;8.70;78.90;;;-142.21;100.00;112049.66;4952597;28;20492;-75
2022/03/28 04:58:01;;;;;;;11.50;7.40;;;8.80;79.40;;;-142.21;100.00;112049.66;4952823;29;20484;-76
2022/03/28 05:00:28;;;;;;;11.17;7.50;;;8.80;80.60;;;-142.21;100.00;112049.66;4953113;28;20445;-76
2022/03/28 05:02:57;;;;;;;12.13;7.50;;;8.80;78.50;;;-142.21;100.00;112049.66;4948108;28;20496;-75
2022/03/28 05:05:26;;;;;;;13.90;7.30;;;8.70;77.90;;;-142.21;100.00;112049.66;4953629;28;20452;-76
2022/03/28 05:07:53;;;;;;;9.87;7.43;;;8.80;78.30;;;-142.21;100.00;112049.66;4954118;28;20449;-76
2022/03/28 05:10:20;;;;;;;10.60;7.10;;;8.70;76.90;;;-142.21;100.00;112049.66;4953399;28;20499;-76
2022/03/28 05:12:47;;;;;;;10.50;6.57;;;8.70;77.60;;;-142.21;100.00;112049.66;4954591;28;20540;-76
2022/03/28 05:15:14;;;;;;;7.63;6.20;;;8.70;77.90;;;-142.21;100.00;112049.66;4957599;28;20492;-75
2022/03/28 05:17:42;;;;;;;8.40;6.43;;;8.70;76.70;;;-142.21;100.00;112049.66;4957131;28;20535;-76
2022/03/28 05:20:11;;;;;;;13.67;8.50;;;8.70;75.40;;;-142.21;100.00;112049.66;4957304;28;20467;-75
2022/03/28 05:22:39;;;;;;;10.07;6.80;;;8.70;77.40;;;-142.21;100.00;112049.66;4957541;28;20906;-76
2022/03/28 05:25:09;;;;;;;11.87;7.40;;;8.70;75.30;;;-142.21;100.00;112049.66;4957522;29;20448;-74
2022/03/28 05:27:43;;;;;;;13.03;7.37;;;8.70;75.40;;;-142.21;100.00;112049.66;4957607;28;20532;-76
2022/03/28 05:30:12;;;;;;;15.03;8.23;;;8.60;75.50;;;-142.21;100.00;112049.66;4957674;29;20467;-77
2022/03/28 05:32:39;;;;;;;12.03;7.83;;;8.60;76.10;;;-142.21;100.00;112049.66;4957535;28;20838;-75
2022/03/28 05:35:08;;;;;;;12.33;7.57;;;8.60;74.40;;;-142.21;100.00;112049.66;4957000;28;20492;-77
2022/03/28 05:37:36;;;;;;;10.67;6.90;;;8.60;75.50;;;-142.21;100.00;112049.66;4957706;28;20544;-75
2022/03/28 05:40:07;;;;;;;10.77;6.77;;;8.80;75.50;;;-142.21;100.00;112049.66;4956280;28;20480;-77
2022/03/28 05:42:34;;;;;;;12.17;6.80;;;8.70;75.80;;;-142.21;100.00;112049.66;4957180;28;20452;-77
2022/03/28 05:45:01;;;;;;;9.67;6.93;;;8.70;74.40;;;-142.21;100.00;112049.66;4956880;28;20472;-77
2022/03/28 05:47:29;;;;;;;8.93;7.17;;;8.80;75.50;;;-142.21;100.00;112049.66;4957507;28;20873;-77
2022/03/28 05:49:56;;;;;;;11.30;7.37;;;8.80;76.10;;;-142.21;100.00;112049.66;4956758;28;20995;-75
2022/03/28 05:52:24;;;;;;;10.47;7.47;;;8.80;74.00;;;-142.21;100.00;112049.66;4957683;28;20480;-77
2022/03/28 05:54:51;;;;;;;11.43;7.10;;;8.90;76.00;;;-142.21;100.00;112049.66;4957028;28;20790;-77
2022/03/28 05:57:20;;;;;;;10.27;6.83;;;8.90;73.70;;;-142.21;100.00;112049.66;4956488;28;20460;-78
2022/03/28 05:59:47;;;;;;;11.53;8.20;;;9.00;75.10;;;-142.21;100.00;112049.66;4957193;28;20535;-77
2022/03/28 06:02:14;;;;;;;11.60;6.97;;;9.10;74.80;;;-142.21;100.00;112049.66;4955973;28;20480;-76
2022/03/28 06:04:41;;;;;;;11.40;7.33;;;9.20;74.00;;;-142.21;100.00;112049.66;4956628;28;20480;-77
2022/03/28 06:07:09;;;;;;;10.17;6.97;;;9.20;73.20;;;-142.21;100.00;112049.66;4956798;28;20453;-76
2022/03/28 06:09:36;;;;;;;12.80;7.50;;;9.20;73.50;;;-142.21;100.00;112049.66;4956851;28;20477;-76
2022/03/28 06:12:03;;;;;;;12.37;7.03;;;9.30;73.50;;;-142.21;100.00;112049.66;4956547;28;20508;-75
2022/03/28 06:14:32;;;;;;;10.97;6.97;;;9.30;71.70;;;-142.21;100.00;112049.66;4955994;28;20532;-75
2022/03/28 06:16:59;;;;;;;10.93;6.87;;;9.40;73.10;;;-142.21;100.00;112049.66;4956787;28;20528;-75
2022/03/28 06:19:27;;;;;;;9.60;7.60;;;9.50;72.30;;;-142.21;100.00;112049.66;4955803;28;20453;-75
2022/03/28 06:21:54;;;;;;;11.70;6.63;;;9.60;72.60;;;-142.21;100.00;112049.66;4956606;28;20453;-76
2022/03/28 06:24:21;;;;;;;9.17;6.67;;;9.70;71.40;;;-142.21;100.00;112049.66;4955739;28;20529;-76
2022/03/28 06:26:48;;;;;;;10.00;7.13;;;9.80;71.20;;;-142.21;100.00;112049.66;4951046;29;21031;-77
2022/03/28 06:29:15;;;;;;;10.00;7.20;;;10.00;69.50;;;-142.21;100.00;112049.66;4952527;28;20465;-76
2022/03/28 06:31:44;;;;;;;12.23;7.13;;;10.10;69.60;;;-142.21;100.00;112049.66;4954538;28;20476;-76
2022/03/28 06:34:12;;;;;;;9.93;6.47;;;10.30;69.40;;;-142.21;100.00;112049.66;4946477;29;20499;-75
2022/03/28 06:36:39;;;;;;;9.20;6.60;;;10.60;69.00;;;-142.21;100.00;112049.66;4959008;28;20535;-78
2022/03/28 06:39:07;;;;;;;11.43;7.37;;;10.80;70.30;;;-142.21;100.00;112049.66;4953861;29;20455;-79
2022/03/28 06:41:34;;;;;;;9.47;6.80;;;11.10;66.30;;;-142.21;100.00;112049.66;4955439;28;20456;-78
2022/03/28 06:44:01;;;;;;;10.47;7.03;;;11.50;66.30;;;-142.21;100.00;112049.66;4956182;28;20484;-78
2022/03/28 06:46:28;;;;;;;10.70;7.10;;;11.70;63.90;;;-142.21;100.00;112049.66;4955342;28;20544;-77
2022/03/28 06:48:57;;;;;;;9.70;6.87;;;12.00;64.70;;;-142.21;100.00;112049.66;4956134;28;20507;-79
2022/03/28 06:51:24;;;;;;;11.60;7.07;;;12.30;65.10;;;-142.21;100.00;112049.66;4955073;29;20539;-75
2022/03/28 06:53:52;;;;;;;11.93;7.33;;;12.70;63.70;;;-142.21;100.00;112049.66;4955396;28;20532;-76
2022/03/28 06:56:19;;;;;;;10.23;6.80;;;12.90;62.40;;;-142.21;100.00;112049.66;4955541;28;20456;-76
2022/03/28 06:58:47;;;;;;;11.57;7.10;;;13.10;63.80;;;-142.21;100.00;112049.66;4955117;28;20499;-78
2022/03/28 07:01:14;;;;;;;8.77;7.10;;;13.50;63.10;;;-142.21;100.00;112049.66;4956135;29;20535;-75
2022/03/28 07:03:43;;;;;;;10.93;7.33;;;13.70;61.40;;;-142.21;100.00;112049.66;4954372;28;20575;-79
2022/03/28 07:06:13;;;;;;;11.50;6.90;;;14.10;61.00;;;-142.21;100.00;112049.66;4955289;28;20448;-75
2022/03/28 07:08:40;;;;;;;11.53;7.90;;;14.30;64.50;;;-142.21;100.00;112049.66;4937659;29;20480;-74
2022/03/28 07:11:07;;;;;;;9.73;7.43;;;14.30;64.90;;;-142.21;100.00;112049.66;4955800;28;20520;-74
2022/03/28 07:13:34;;;;;;;13.87;7.50;;;14.10;60.80;;;-142.21;100.00;112049.66;4955015;28;20816;-76
2022/03/28 07:16:01;;;;;;;9.37;7.50;;;13.90;63.90;;;-142.21;100.00;112049.66;4955298;28;20491;-75
2022/03/28 07:18:29;;;;;;;13.03;7.37;;;13.90;62.40;;;-142.21;100.00;112049.66;4954804;29;20456;-76
2022/03/28 07:20:56;;;;;;;8.57;7.23;;;13.80;62.70;;;-142.21;100.00;112049.66;4954141;29;20476;-76
2022/03/28 07:23:34;;;;;;;12.80;8.40;;;13.90;61.10;;;-142.21;100.00;112049.66;4954440;28;20539;-76
2022/03/28 07:26:01;;;;;;;10.63;7.67;;;14.00;60.30;;;-142.21;100.00;112049.66;4960194;29;20503;-74
2022/03/28 07:28:29;;;;;;;10.67;7.03;;;14.00;59.00;;;-142.21;100.00;112049.66;4954901;28;20551;-78
2022/03/28 07:30:57;;;;;;;11.33;7.00;;;14.10;58.90;;;-142.21;100.00;112049.66;4946392;28;20938;-79
2022/03/28 07:33:24;;;;;;;14.80;8.17;;;14.20;57.80;;;-142.21;100.00;112049.66;4951535;29;20527;-77
2022/03/28 07:35:55;;;;;;;11.60;7.67;;;14.10;58.70;;;-142.21;100.00;112049.66;4954604;28;20487;-78
2022/03/28 07:38:24;;;;;;;10.97;7.57;;;14.00;59.30;;;-142.21;100.00;112049.66;4955575;29;20500;-76
2022/03/28 07:40:51;;;;;;;11.83;7.30;;;13.90;58.50;;;-142.21;100.00;112049.66;4957215;29;20948;-76
2022/03/28 07:43:19;;;;;;;11.30;7.87;;;14.00;57.60;;;-142.21;100.00;112049.66;4956304;29;20539;-77
2022/03/28 07:45:48;;;;;;;10.70;8.33;;;14.20;60.20;;;-142.21;100.00;112049.66;4942837;29;20536;-77
2022/03/28 07:48:15;;;;;;;11.77;7.13;;;14.20;58.80;;;-142.21;100.00;112049.66;4954916;28;20544;-75
2022/03/28 07:50:44;;;;;;;11.57;7.50;;;14.40;57.50;;;-142.21;100.00;112049.66;4953410;29;20941;-75
2022/03/28 07:53:12;;;;;;;15.67;8.57;;;14.50;56.30;;;-142.21;100.00;112049.66;4956544;28;20472;-75
2022/03/28 07:55:41;;;;;;;14.60;8.97;;;14.60;56.50;;;-142.21;100.00;112049.66;4976403;28;20463;-75
2022/03/28 07:58:10;;;;;;;12.97;8.03;;;14.70;55.90;;;-142.21;100.00;112049.66;4974559;28;20448;-76
2022/03/28 08:00:40;;;;;;;14.90;8.57;;;15.00;55.30;;;-142.21;100.00;112049.66;4956664;29;20457;-77
2022/03/28 08:03:08;;;;;;;10.87;7.53;;;15.10;55.10;;;-142.21;100.00;112049.66;4955647;28;20459;-76
2022/03/28 08:05:35;;;;;;;10.33;7.87;;;15.20;54.20;;;-142.21;100.00;112049.66;4955106;29;20453;-75
2022/03/28 08:08:02;;;;;;;12.73;8.10;;;15.20;53.90;;;-142.21;100.00;112049.66;4955569;28;20499;-75
2022/03/28 08:10:30;;;;;;;11.33;7.60;;;15.30;54.70;;;-142.21;100.00;112049.66;4955267;28;20449;-75
2022/03/28 08:12:58;;;;;;;13.70;7.87;;;15.40;53.70;;;-142.21;100.00;112049.66;4954074;28;20449;-77
2022/03/28 08:15:26;;;;;;;12.20;8.10;;;15.50;53.60;;;-142.21;100.00;112049.66;4947638;29;20449;-75
2022/03/28 08:17:53;;;;;;;15.47;7.90;;;15.80;54.20;;;-142.21;100.00;112049.66;4955431;28;20544;-76
2022/03/28 08:20:20;;;;;;;11.73;7.83;;;15.90;53.80;;;-142.21;100.00;112049.66;4914354;29;20480;-76
2022/03/28 08:22:54;;;;;;;12.53;8.90;;;16.10;54.20;;;-142.21;100.00;112049.66;4953342;28;20480;-78
2022/03/28 08:25:23;;;;;;;13.03;8.13;;;16.20;53.40;;;-142.21;100.00;112049.66;4935655;29;20493;-78
2022/03/28 08:27:50;;;;;;;11.67;8.50;;;16.50;53.80;;;-142.21;100.00;112049.66;4934905;29;20488;-79
2022/03/28 08:30:19;;;;;;;11.23;7.90;;;16.70;53.00;;;-142.21;100.00;112049.66;4936721;29;20536;-79
2022/03/28 08:32:47;;;;;;;10.60;7.93;;;16.80;52.00;;;-142.21;92.10;112049.66;4953985;28;20448;-79
2022/03/28 08:35:14;;;;;;;13.87;9.63;;;16.90;51.40;;;-142.21;100.00;112049.66;4954014;28;20539;-78
2022/03/28 08:37:42;;;;;;;14.00;8.63;;;16.90;50.80;;;-142.21;96.35;112049.66;4953715;28;20489;-79
2022/03/28 08:40:10;;;;;;;13.03;8.47;;;17.00;50.80;;;-142.21;96.75;112049.66;4954088;28;20480;-78
2022/03/28 08:42:39;;;;;;;12.53;8.50;;;17.10;50.60;;;-142.21;93.32;112049.66;4953461;28;20492;-78
2022/03/28 08:45:10;;;;;;;10.73;8.07;;;17.20;50.90;;;-142.21;86.24;112049.66;4954201;28;20524;-76
2022/03/28 08:47:43;;;;;;;12.27;8.03;;;17.30;49.60;;;-142.21;83.73;112049.66;4948005;28;20457;-78
2022/03/28 08:50:11;;;;;;;10.67;7.83;;;17.50;48.50;;;-142.21;88.37;112049.66;4971294;28;20472;-78
2022/03/28 08:52:40;;;;;;;13.27;7.93;;;17.60;48.30;;;-142.21;86.83;112049.66;4957979;28;20479;-78
2022/03/28 08:55:10;;;;;;;14.53;9.27;;;17.80;48.60;;;-142.21;100.00;112049.66;4938571;29;21022;-79
2022/03/28 08:57:38;;;;;;;12.47;8.60;;;18.00;48.00;;;-142.21;80.75;112049.66;4939087;29;20498;-78
2022/03/28 09:00:08;;;;;;;14.20;8.60;;;18.30;48.30;;;-142.21;86.09;112049.66;4956923;29;20506;-79
2022/03/28 09:02:43;;;;;;;11.90;8.43;;;19.10;48.60;;;-142.21;86.00;112049.66;4957398;28;20253;-79
2022/03/28 09:05:11;;;;;;;12.07;7.87;;;20.20;47.70;;;-142.21;63.76;112049.66;4957284;29;20693;-75
2022/03/28 09:07:39;;;;;;;11.17;8.73;;;21.40;45.30;;;-142.21;66.86;112049.66;4950947;29;20227;-78
2022/03/28 09:10:14;;;;;;;13.47;9.13;;;22.70;44.00;;;-142.21;57.30;112049.66;4957502;28;20260;-80
2022/03/28 09:13:01;;;;;;;10.70;8.87;;;23.90;41.90;;;-142.21;57.06;112049.66;4957972;29;20201;-77
2022/03/28 09:15:48;;;;;;;12.60;8.83;;;25.00;38.10;;;-142.21;59.72;112049.66;4957736;29;20235;-79
2022/03/28 09:18:27;;;;;;;15.90;8.73;;;25.80;36.00;;;-142.21;62.91;112049.66;4937917;29;20236;-77
2022/03/28 09:20:57;;;;;;;11.27;8.23;;;26.70;37.70;;;-142.21;57.05;112049.66;4943150;29;20224;-78
2022/03/28 09:23:40;;;;;;;10.20;7.40;;;27.60;36.40;;;-142.21;73.27;112049.66;4957364;28;20272;-79
2022/03/28 09:26:11;;;;;;;13.43;8.67;;;28.20;33.70;;;-142.21;62.13;112049.66;4957231;29;20288;-76
2022/03/28 09:28:49;;;;;;;12.30;8.40;;;28.80;34.90;;;-142.21;55.09;112049.66;4957525;29;20654;-78
2022/03/28 09:31:30;;;;;;;14.67;9.13;;;29.50;33.40;;;-142.21;50.59;112049.66;4956016;29;20214;-80
2022/03/28 09:34:09;;;;;;;11.77;9.13;;;30.00;31.00;;;-142.21;55.44;112049.66;4957906;29;20194;-77
2022/03/28 09:36:48;;;;;;;11.30;8.70;;;30.00;29.30;;;-142.21;49.74;112049.66;4957435;29;20549;-78
2022/03/28 09:39:19;;;;;;;12.80;9.07;;;30.10;30.20;;;-142.21;50.71;112049.66;4937797;29;20557;-78
2022/03/28 09:42:00;;;;;;;12.03;8.83;;;30.30;29.60;;;-142.21;48.33;112049.66;4948917;29;20657;-76
2022/03/28 09:44:39;;;;;;;10.93;7.93;;;30.40;30.30;;;-142.21;45.88;112049.66;4956738;29;20216;-76
2022/03/28 09:47:09;;;;;;;12.17;9.53;;;30.70;29.20;;;-142.21;45.31;112049.66;4960321;28;20231;-78
2022/03/28 09:49:41;;;;;;;12.57;9.17;;;30.60;29.30;;;-142.21;46.41;112049.66;4976253;28;20247;-76
2022/03/28 09:52:11;;;;;;;14.87;8.87;;;30.70;28.90;;;-142.21;45.10;112049.66;4970438;28;20312;-78
2022/03/28 09:54:51;;;;;;;12.27;9.17;;;30.60;28.30;;;-142.21;44.46;112049.66;4957199;29;20193;-78
2022/03/28 09:57:24;;;;;;;13.40;8.73;;;30.60;28.10;;;-142.21;45.49;112049.66;4944675;28;20199;-77
2022/03/28 09:59:54;;;;;;;10.07;8.27;;;30.80;29.70;;;-142.21;46.98;112049.66;4956807;29;20243;-77
2022/03/28 10:02:24;;;;;;;11.07;8.33;;;31.10;30.00;;;-142.21;44.38;112049.66;4956354;29;20194;-78